sensor_id;sensor_type;location;lat;lon;timestamp;pressure;altitude;pressure_sealevel;temperature;humidity
74633;BME280;63139;52.018;8.552;2023-04-19T00:00:47;101703.06;;;9.56;65.64
74633;BME280;63139;52.018;8.552;2023-04-19T00:03:16;101696.69;;;9.59;65.77
74633;BME280;63139;52.018;8.552;2023-04-19T00:05:44;101702.94;;;9.58;65.79
74633;BME280;63139;52.018;8.552;2023-04-19T00:08:13;101694.16;;;9.57;65.68
74633;BME280;63139;52.018;8.552;2023-04-19T00:10:41;101697.78;;;9.56;65.63
74633;BME280;63139;52.018;8.552;2023-04-19T00:13:09;101695.41;;;9.53;65.74
74633;BME280;63139;52.018;8.552;2023-04-19T00:15:37;101682.44;;;9.50;65.78
74633;BME280;63139;52.018;8.552;2023-04-19T00:18:05;101687.16;;;9.47;65.42
74633;BME280;63139;52.018;8.552;2023-04-19T00:20:33;101684.53;;;9.47;65.57
74633;BME280;63139;52.018;8.552;2023-04-19T00:23:00;101681.28;;;9.43;65.25
74633;BME280;63139;52.018;8.552;2023-04-19T00:25:30;101681.28;;;9.43;65.58
74633;BME280;63139;52.018;8.552;2023-04-19T00:28:00;101680.56;;;9.41;65.92
74633;BME280;63139;52.018;8.552;2023-04-19T00:30:28;101682.53;;;9.39;65.91
74633;BME280;63139;52.018;8.552;2023-04-19T00:32:56;101681.94;;;9.35;66.26
74633;BME280;63139;52.018;8.552;2023-04-19T00:35:24;101679.69;;;9.31;66.47
74633;BME280;63139;52.018;8.552;2023-04-19T00:37:52;101689.84;;;9.26;66.65
74633;BME280;63139;52.018;8.552;2023-04-19T00:40:20;101678.66;;;9.22;66.68
74633;BME280;63139;52.018;8.552;2023-04-19T00:42:49;101673.19;;;9.14;66.81
74633;BME280;63139;52.018;8.552;2023-04-19T00:45:17;101682.34;;;9.10;66.90
74633;BME280;63139;52.018;8.552;2023-04-19T00:47:45;101668.81;;;9.04;66.86
74633;BME280;63139;52.018;8.552;2023-04-19T00:50:13;101665.03;;;8.97;67.10
74633;BME280;63139;52.018;8.552;2023-04-19T00:52:40;101670.78;;;8.90;67.08
74633;BME280;63139;52.018;8.552;2023-04-19T00:55:09;101671.19;;;8.86;67.14
74633;BME280;63139;52.018;8.552;2023-04-19T00:57:37;101661.97;;;8.80;67.06
74633;BME280;63139;52.018;8.552;2023-04-19T01:00:07;101660.81;;;8.73;66.86
74633;BME280;63139;52.018;8.552;2023-04-19T01:02:35;101665.78;;;8.67;66.92
74633;BME280;63139;52.018;8.552;2023-04-19T01:05:04;101665.41;;;8.60;66.86
74633;BME280;63139;52.018;8.552;2023-04-19T01:07:32;101663.16;;;8.55;66.88
74633;BME280;63139;52.018;8.552;2023-04-19T01:10:00;101668.09;;;8.49;66.88
74633;BME280;63139;52.018;8.552;2023-04-19T01:12:27;101664.28;;;8.42;67.15
74633;BME280;63139;52.018;8.552;2023-04-19T01:14:55;101674.38;;;8.37;67.76
74633;BME280;63139;52.018;8.552;2023-04-19T01:17:25;101661.53;;;8.32;67.44
74633;BME280;63139;52.018;8.552;2023-04-19T01:19:58;101656.84;;;8.25;67.86
74633;BME280;63139;52.018;8.552;2023-04-19T01:22:27;101658.19;;;8.19;68.21
74633;BME280;63139;52.018;8.552;2023-04-19T01:24:57;101653.41;;;8.13;68.96
74633;BME280;63139;52.018;8.552;2023-04-19T01:27:25;101653.41;;;8.13;68.73
74633;BME280;63139;52.018;8.552;2023-04-19T01:29:53;101654.59;;;8.09;69.15
74633;BME280;63139;52.018;8.552;2023-04-19T01:32:25;101668.06;;;8.06;69.01
74633;BME280;63139;52.018;8.552;2023-04-19T01:34:54;101652.34;;;8.04;68.81
74633;BME280;63139;52.018;8.552;2023-04-19T01:37:22;101646.25;;;8.04;69.10
74633;BME280;63139;52.018;8.552;2023-04-19T01:39:51;101647.06;;;8.04;68.25
74633;BME280;63139;52.018;8.552;2023-04-19T01:42:19;101659.44;;;8.04;68.82
74633;BME280;63139;52.018;8.552;2023-04-19T01:44:47;101662.91;;;8.04;68.81
74633;BME280;63139;52.018;8.552;2023-04-19T01:47:14;101662.66;;;8.07;68.73
74633;BME280;63139;52.018;8.552;2023-04-19T01:49:42;101658.09;;;8.09;68.33
74633;BME280;63139;52.018;8.552;2023-04-19T01:52:10;101658.44;;;8.16;68.09
74633;BME280;63139;52.018;8.552;2023-04-19T01:54:38;101651.25;;;8.18;67.61
74633;BME280;63139;52.018;8.552;2023-04-19T01:57:07;101646.41;;;8.23;67.64
74633;BME280;63139;52.018;8.552;2023-04-19T01:59:35;101645.34;;;8.26;67.15
74633;BME280;63139;52.018;8.552;2023-04-19T02:02:05;101647.16;;;8.25;66.43
74633;BME280;63139;52.018;8.552;2023-04-19T02:04:33;101648.72;;;8.28;66.54
74633;BME280;63139;52.018;8.552;2023-04-19T02:07:01;101648.81;;;8.26;66.22
74633;BME280;63139;52.018;8.552;2023-04-19T02:09:29;101643.78;;;8.23;66.38
74633;BME280;63139;52.018;8.552;2023-04-19T02:11:56;101645.59;;;8.23;66.43
74633;BME280;63139;52.018;8.552;2023-04-19T02:14:26;101651.97;;;8.20;66.17
74633;BME280;63139;52.018;8.552;2023-04-19T02:16:53;101647.66;;;8.19;66.41
74633;BME280;63139;52.018;8.552;2023-04-19T02:19:21;101653.03;;;8.17;66.19
74633;BME280;63139;52.018;8.552;2023-04-19T02:21:49;101655.69;;;8.17;66.44
74633;BME280;63139;52.018;8.552;2023-04-19T02:24:17;101652.47;;;8.14;66.81
74633;BME280;63139;52.018;8.552;2023-04-19T02:26:44;101653.31;;;8.14;66.88
74633;BME280;63139;52.018;8.552;2023-04-19T02:29:13;101659.66;;;8.12;67.09
74633;BME280;63139;52.018;8.552;2023-04-19T02:31:43;101647.66;;;8.08;66.72
74633;BME280;63139;52.018;8.552;2023-04-19T02:34:12;101651.75;;;8.01;66.23
74633;BME280;63139;52.018;8.552;2023-04-19T02:36:40;101659.31;;;7.94;64.92
74633;BME280;63139;52.018;8.552;2023-04-19T02:39:07;101651.78;;;7.90;64.59
74633;BME280;63139;52.018;8.552;2023-04-19T02:41:37;101647.13;;;7.82;63.36
74633;BME280;63139;52.018;8.552;2023-04-19T02:44:04;101655.50;;;7.76;63.38
74633;BME280;63139;52.018;8.552;2023-04-19T02:46:33;101649.16;;;7.67;62.48
74633;BME280;63139;52.018;8.552;2023-04-19T02:49:02;101649.75;;;7.60;61.18
74633;BME280;63139;52.018;8.552;2023-04-19T02:51:30;101653.09;;;7.51;60.94
74633;BME280;63139;52.018;8.552;2023-04-19T02:53:58;101666.66;;;7.46;60.08
74633;BME280;63139;52.018;8.552;2023-04-19T02:56:26;101664.50;;;7.40;60.58
74633;BME280;63139;52.018;8.552;2023-04-19T02:58:53;101671.88;;;7.35;59.43
74633;BME280;63139;52.018;8.552;2023-04-19T03:01:22;101666.03;;;7.31;59.31
74633;BME280;63139;52.018;8.552;2023-04-19T03:03:50;101663.50;;;7.30;59.01
74633;BME280;63139;52.018;8.552;2023-04-19T03:06:20;101660.03;;;7.29;57.96
74633;BME280;63139;52.018;8.552;2023-04-19T03:08:47;101662.78;;;7.28;58.49
74633;BME280;63139;52.018;8.552;2023-04-19T03:11:17;101659.44;;;7.26;56.67
74633;BME280;63139;52.018;8.552;2023-04-19T03:13:45;101653.81;;;7.30;56.97
74633;BME280;63139;52.018;8.552;2023-04-19T03:16:13;101658.84;;;7.33;56.88
74633;BME280;63139;52.018;8.552;2023-04-19T03:18:42;101658.72;;;7.35;55.64
74633;BME280;63139;52.018;8.552;2023-04-19T03:21:13;101658.84;;;7.33;54.59
74633;BME280;63139;52.018;8.552;2023-04-19T03:23:53;101657.03;;;7.34;54.39
74633;BME280;63139;52.018;8.552;2023-04-19T03:26:21;101656.81;;;7.37;55.24
74633;BME280;63139;52.018;8.552;2023-04-19T03:28:52;101653.44;;;7.35;54.46
74633;BME280;63139;52.018;8.552;2023-04-19T03:31:28;101652.97;;;7.30;54.27
74633;BME280;63139;52.018;8.552;2023-04-19T03:33:57;101659.44;;;7.26;55.41
74633;BME280;63139;52.018;8.552;2023-04-19T03:36:31;101657.63;;;7.15;54.41
74633;BME280;63139;52.018;8.552;2023-04-19T03:39:01;101661.31;;;7.13;55.34
74633;BME280;63139;52.018;8.552;2023-04-19T03:41:29;101657.00;;;7.00;55.19
74633;BME280;63139;52.018;8.552;2023-04-19T03:44:11;101662.09;;;6.91;54.83
74633;BME280;63139;52.018;8.552;2023-04-19T03:46:42;101649.97;;;6.77;55.47
74633;BME280;63139;52.018;8.552;2023-04-19T03:49:13;101649.81;;;6.68;56.18
74633;BME280;63139;52.018;8.552;2023-04-19T03:51:45;101645.25;;;6.58;56.63
74633;BME280;63139;52.018;8.552;2023-04-19T03:54:14;101655.59;;;6.49;57.04
74633;BME280;63139;52.018;8.552;2023-04-19T03:56:42;101659.16;;;6.37;57.05
74633;BME280;63139;52.018;8.552;2023-04-19T03:59:11;101660.75;;;6.27;57.37
74633;BME280;63139;52.018;8.552;2023-04-19T04:01:41;101661.50;;;6.16;57.76
74633;BME280;63139;52.018;8.552;2023-04-19T04:04:08;101660.50;;;6.06;57.96
74633;BME280;63139;52.018;8.552;2023-04-19T04:06:38;101664.63;;;5.97;57.87
74633;BME280;63139;52.018;8.552;2023-04-19T04:09:06;101672.97;;;5.91;58.13
74633;BME280;63139;52.018;8.552;2023-04-19T04:11:35;101672.63;;;5.83;58.48
74633;BME280;63139;52.018;8.552;2023-04-19T04:14:04;101670.44;;;5.77;58.73
74633;BME280;63139;52.018;8.552;2023-04-19T04:16:34;101672.53;;;5.72;58.68
74633;BME280;63139;52.018;8.552;2023-04-19T04:19:02;101671.28;;;5.65;59.19
74633;BME280;63139;52.018;8.552;2023-04-19T04:21:33;101669.06;;;5.59;59.22
74633;BME280;63139;52.018;8.552;2023-04-19T04:24:03;101672.13;;;5.53;59.36
74633;BME280;63139;52.018;8.552;2023-04-19T04:26:41;101671.72;;;5.46;59.68
74633;BME280;63139;52.018;8.552;2023-04-19T04:29:17;101668.53;;;5.41;59.75
74633;BME280;63139;52.018;8.552;2023-04-19T04:31:47;101679.38;;;5.36;59.85
74633;BME280;63139;52.018;8.552;2023-04-19T04:34:19;101679.59;;;5.33;59.93
74633;BME280;63139;52.018;8.552;2023-04-19T04:36:56;101688.53;;;5.31;60.08
74633;BME280;63139;52.018;8.552;2023-04-19T04:39:25;101683.47;;;5.28;60.31
74633;BME280;63139;52.018;8.552;2023-04-19T04:41:55;101681.59;;;5.30;60.42
74633;BME280;63139;52.018;8.552;2023-04-19T04:44:25;101684.22;;;5.30;60.41
74633;BME280;63139;52.018;8.552;2023-04-19T04:46:54;101688.44;;;5.32;60.36
74633;BME280;63139;52.018;8.552;2023-04-19T04:49:25;101680.75;;;5.29;60.52
74633;BME280;63139;52.018;8.552;2023-04-19T04:51:53;101688.63;;;5.29;61.00
74633;BME280;63139;52.018;8.552;2023-04-19T04:54:21;101686.84;;;5.30;60.88
74633;BME280;63139;52.018;8.552;2023-04-19T04:56:49;101685.06;;;5.30;61.16
74633;BME280;63139;52.018;8.552;2023-04-19T04:59:18;101688.53;;;5.31;61.03
74633;BME280;63139;52.018;8.552;2023-04-19T05:01:48;101683.16;;;5.32;61.23
74633;BME280;63139;52.018;8.552;2023-04-19T05:04:17;101687.47;;;5.33;61.39
74633;BME280;63139;52.018;8.552;2023-04-19T05:06:45;101689.97;;;5.35;61.04
74633;BME280;63139;52.018;8.552;2023-04-19T05:09:19;101696.16;;;5.34;61.31
74633;BME280;63139;52.018;8.552;2023-04-19T05:11:47;101691.06;;;5.32;61.46
74633;BME280;63139;52.018;8.552;2023-04-19T05:14:15;101694.28;;;5.36;61.13
74633;BME280;63139;52.018;8.552;2023-04-19T05:16:45;101703.66;;;5.40;61.22
74633;BME280;63139;52.018;8.552;2023-04-19T05:19:12;101695.56;;;5.43;60.85
74633;BME280;63139;52.018;8.552;2023-04-19T05:21:46;101704.69;;;5.50;61.01
74633;BME280;63139;52.018;8.552;2023-04-19T05:24:15;101698.31;;;5.54;60.75
74633;BME280;63139;52.018;8.552;2023-04-19T05:26:45;101701.34;;;5.61;60.72
74633;BME280;63139;52.018;8.552;2023-04-19T05:29:14;101703.53;;;5.67;60.54
74633;BME280;63139;52.018;8.552;2023-04-19T05:31:49;101696.50;;;5.67;59.96
74633;BME280;63139;52.018;8.552;2023-04-19T05:34:23;101706.03;;;5.81;59.87
74633;BME280;63139;52.018;8.552;2023-04-19T05:36:53;101701.22;;;5.88;59.74
74633;BME280;63139;52.018;8.552;2023-04-19T05:39:21;101704.81;;;5.99;59.61
74633;BME280;63139;52.018;8.552;2023-04-19T05:41:50;101702.69;;;6.04;59.63
74633;BME280;63139;52.018;8.552;2023-04-19T05:44:18;101705.81;;;6.09;59.21
74633;BME280;63139;52.018;8.552;2023-04-19T05:46:45;101705.72;;;6.11;59.33
74633;BME280;63139;52.018;8.552;2023-04-19T05:49:27;101706.09;;;6.17;59.14
74633;BME280;63139;52.018;8.552;2023-04-19T05:52:17;101703.38;;;6.19;59.35
74633;BME280;63139;52.018;8.552;2023-04-19T05:54:49;101697.16;;;6.20;59.77
74633;BME280;63139;52.018;8.552;2023-04-19T05:57:17;101694.31;;;6.23;59.43
74633;BME280;63139;52.018;8.552;2023-04-19T05:59:45;101696.63;;;6.28;59.50
74633;BME280;63139;52.018;8.552;2023-04-19T06:02:16;101694.59;;;6.31;59.51
74633;BME280;63139;52.018;8.552;2023-04-19T06:04:46;101694.72;;;6.30;59.41
74633;BME280;63139;52.018;8.552;2023-04-19T06:07:15;101690.06;;;6.33;59.43
74633;BME280;63139;52.018;8.552;2023-04-19T06:09:58;101702.88;;;6.38;59.79
74633;BME280;63139;52.018;8.552;2023-04-19T06:12:26;101694.28;;;6.36;59.65
74633;BME280;63139;52.018;8.552;2023-04-19T06:14:53;101697.97;;;6.33;59.77
74633;BME280;63139;52.018;8.552;2023-04-19T06:17:22;101695.63;;;6.41;59.66
74633;BME280;63139;52.018;8.552;2023-04-19T06:19:52;101697.19;;;6.44;60.06
74633;BME280;63139;52.018;8.552;2023-04-19T06:22:20;101694.44;;;6.45;60.12
74633;BME280;63139;52.018;8.552;2023-04-19T06:24:48;101702.47;;;6.44;59.80
74633;BME280;63139;52.018;8.552;2023-04-19T06:27:16;101697.06;;;6.45;59.76
74633;BME280;63139;52.018;8.552;2023-04-19T06:29:44;101698.66;;;6.48;59.90
74633;BME280;63139;52.018;8.552;2023-04-19T06:32:11;101702.50;;;6.55;59.88
74633;BME280;63139;52.018;8.552;2023-04-19T06:34:39;101698.56;;;6.60;59.97
74633;BME280;63139;52.018;8.552;2023-04-19T06:37:08;101698.56;;;6.60;59.64
74633;BME280;63139;52.018;8.552;2023-04-19T06:39:36;101695.72;;;6.63;59.08
74633;BME280;63139;52.018;8.552;2023-04-19T06:42:04;101702.34;;;6.69;59.42
74633;BME280;63139;52.018;8.552;2023-04-19T06:44:32;101703.34;;;6.79;59.08
74633;BME280;63139;52.018;8.552;2023-04-19T06:47:00;101717.84;;;6.85;58.63
74633;BME280;63139;52.018;8.552;2023-04-19T06:49:28;101703.94;;;6.83;58.30
74633;BME280;63139;52.018;8.552;2023-04-19T06:51:57;101701.59;;;6.91;58.51
74633;BME280;63139;52.018;8.552;2023-04-19T06:54:26;101700.06;;;6.99;58.61
74633;BME280;63139;52.018;8.552;2023-04-19T06:56:55;101694.06;;;6.97;58.54
74633;BME280;63139;52.018;8.552;2023-04-19T06:59:23;101701.28;;;7.07;58.50
74633;BME280;63139;52.018;8.552;2023-04-19T07:01:53;101696.84;;;7.07;58.58
74633;BME280;63139;52.018;8.552;2023-04-19T07:04:23;101710.41;;;7.14;58.19
74633;BME280;63139;52.018;8.552;2023-04-19T07:06:51;101703.34;;;7.14;57.96
74633;BME280;63139;52.018;8.552;2023-04-19T07:09:19;101699.38;;;7.09;57.85
74633;BME280;63139;52.018;8.552;2023-04-19T07:11:48;101705.25;;;7.12;57.98
74633;BME280;63139;52.018;8.552;2023-04-19T07:14:17;101698.69;;;7.18;57.77
74633;BME280;63139;52.018;8.552;2023-04-19T07:16:45;101703.72;;;7.21;57.74
74633;BME280;63139;52.018;8.552;2023-04-19T07:19:15;101696.19;;;7.27;57.75
74633;BME280;63139;52.018;8.552;2023-04-19T07:21:44;101697.75;;;7.41;57.75
74633;BME280;63139;52.018;8.552;2023-04-19T07:24:12;101704.00;;;7.51;56.89
74633;BME280;63139;52.018;8.552;2023-04-19T07:26:40;101697.56;;;7.66;56.59
74633;BME280;63139;52.018;8.552;2023-04-19T07:29:10;101696.13;;;7.85;56.07
74633;BME280;63139;52.018;8.552;2023-04-19T07:31:40;101694.91;;;8.11;56.07
74633;BME280;63139;52.018;8.552;2023-04-19T07:34:08;101701.38;;;8.18;54.50
74633;BME280;63139;52.018;8.552;2023-04-19T07:36:36;101690.56;;;8.32;55.12
74633;BME280;63139;52.018;8.552;2023-04-19T07:39:04;101694.28;;;8.41;54.02
74633;BME280;63139;52.018;8.552;2023-04-19T07:41:32;101689.44;;;8.57;54.34
74633;BME280;63139;52.018;8.552;2023-04-19T07:44:01;101687.84;;;8.66;53.68
74633;BME280;63139;52.018;8.552;2023-04-19T07:46:30;101685.66;;;8.71;53.83
74633;BME280;63139;52.018;8.552;2023-04-19T07:48:58;101691.28;;;8.77;53.13
74633;BME280;63139;52.018;8.552;2023-04-19T07:51:26;101682.72;;;8.85;52.40
74633;BME280;63139;52.018;8.552;2023-04-19T07:53:54;101680.69;;;9.09;53.03
74633;BME280;63139;52.018;8.552;2023-04-19T07:56:22;101679.50;;;9.23;52.17
74633;BME280;63139;52.018;8.552;2023-04-19T07:58:51;101687.97;;;9.17;51.37
74633;BME280;63139;52.018;8.552;2023-04-19T08:01:35;101681.72;;;9.18;51.40
74633;BME280;63139;52.018;8.552;2023-04-19T08:04:03;101677.72;;;9.23;51.09
74633;BME280;63139;52.018;8.552;2023-04-19T08:06:32;101689.44;;;9.30;50.46
74633;BME280;63139;52.018;8.552;2023-04-19T08:09:00;101684.19;;;9.19;50.52
74633;BME280;63139;52.018;8.552;2023-04-19T08:11:28;101680.53;;;9.31;51.19
74633;BME280;63139;52.018;8.552;2023-04-19T08:13:56;101676.78;;;9.34;50.44
74633;BME280;63139;52.018;8.552;2023-04-19T08:16:45;101679.19;;;9.37;50.91
74633;BME280;63139;52.018;8.552;2023-04-19T08:19:15;101680.78;;;9.28;50.84
74633;BME280;63139;52.018;8.552;2023-04-19T08:21:43;101676.13;;;9.42;51.02
74633;BME280;63139;52.018;8.552;2023-04-19T08:24:11;101671.13;;;9.39;50.29
74633;BME280;63139;52.018;8.552;2023-04-19T08:26:39;101671.38;;;9.35;49.10
74633;BME280;63139;52.018;8.552;2023-04-19T08:29:07;101659.41;;;9.31;50.34
74633;BME280;63139;52.018;8.552;2023-04-19T08:31:35;101660.44;;;9.40;50.71
74633;BME280;63139;52.018;8.552;2023-04-19T08:34:05;101660.00;;;9.45;50.37
74633;BME280;63139;52.018;8.552;2023-04-19T08:36:32;101663.56;;;9.55;50.42
74633;BME280;63139;52.018;8.552;2023-04-19T08:39:11;101649.38;;;9.56;49.59
74633;BME280;63139;52.018;8.552;2023-04-19T08:41:55;101653.00;;;9.64;47.85
74633;BME280;63139;52.018;8.552;2023-04-19T08:44:36;101642.44;;;9.64;47.54
74633;BME280;63139;52.018;8.552;2023-04-19T08:47:24;101645.53;;;9.79;47.01
74633;BME280;63139;52.018;8.552;2023-04-19T08:50:01;101644.38;;;9.62;46.24
74633;BME280;63139;52.018;8.552;2023-04-19T08:52:50;101634.50;;;9.64;46.78
74633;BME280;63139;52.018;8.552;2023-04-19T08:55:28;101636.97;;;9.56;46.74
74633;BME280;63139;52.018;8.552;2023-04-19T08:57:56;101628.91;;;9.58;46.85
74633;BME280;63139;52.018;8.552;2023-04-19T09:00:24;101628.91;;;9.58;46.04
74633;BME280;63139;52.018;8.552;2023-04-19T09:02:52;101628.59;;;9.51;48.38
74633;BME280;63139;52.018;8.552;2023-04-19T09:05:23;101632.63;;;9.46;46.90
74633;BME280;63139;52.018;8.552;2023-04-19T09:07:51;101641.25;;;9.48;47.18
74633;BME280;63139;52.018;8.552;2023-04-19T09:10:20;101617.84;;;9.43;48.04
74633;BME280;63139;52.018;8.552;2023-04-19T09:12:59;101609.38;;;9.49;48.26
74633;BME280;63139;52.018;8.552;2023-04-19T09:15:35;101612.50;;;9.54;48.27
74633;BME280;63139;52.018;8.552;2023-04-19T09:18:05;101599.81;;;9.58;48.54
74633;BME280;63139;52.018;8.552;2023-04-19T09:20:39;101624.03;;;9.53;48.37
74633;BME280;63139;52.018;8.552;2023-04-19T09:23:08;101611.81;;;9.62;48.75
74633;BME280;63139;52.018;8.552;2023-04-19T09:25:38;101606.81;;;9.68;48.39
74633;BME280;63139;52.018;8.552;2023-04-19T09:28:26;101594.44;;;9.79;46.40
74633;BME280;63139;52.018;8.552;2023-04-19T09:30:55;101589.75;;;9.82;45.51
74633;BME280;63139;52.018;8.552;2023-04-19T09:33:37;101597.97;;;9.89;44.14
74633;BME280;63139;52.018;8.552;2023-04-19T09:36:07;101586.28;;;10.01;44.70
74633;BME280;63139;52.018;8.552;2023-04-19T09:38:45;101586.44;;;10.09;43.06
74633;BME280;63139;52.018;8.552;2023-04-19T09:41:13;101595.78;;;10.13;43.37
74633;BME280;63139;52.018;8.552;2023-04-19T09:43:41;101580.22;;;10.20;43.87
74633;BME280;63139;52.018;8.552;2023-04-19T09:46:30;101577.72;;;10.28;42.86
74633;BME280;63139;52.018;8.552;2023-04-19T09:49:18;101587.88;;;10.32;42.08
74633;BME280;63139;52.018;8.552;2023-04-19T09:52:04;101578.28;;;10.41;43.20
74633;BME280;63139;52.018;8.552;2023-04-19T09:54:32;101572.56;;;10.45;43.84
74633;BME280;63139;52.018;8.552;2023-04-19T09:57:00;101577.56;;;10.48;42.66
74633;BME280;63139;52.018;8.552;2023-04-19T09:59:29;101582.59;;;10.52;42.90
74633;BME280;63139;52.018;8.552;2023-04-19T10:01:57;101546.91;;;10.56;42.13
74633;BME280;63139;52.018;8.552;2023-04-19T10:04:26;101562.09;;;10.63;42.01
74633;BME280;63139;52.018;8.552;2023-04-19T10:07:16;101568.22;;;10.73;42.10
74633;BME280;63139;52.018;8.552;2023-04-19T10:09:57;101563.31;;;10.69;41.26
74633;BME280;63139;52.018;8.552;2023-04-19T10:12:31;101548.00;;;10.72;40.14
74633;BME280;63139;52.018;8.552;2023-04-19T10:15:22;101550.22;;;10.77;41.56
74633;BME280;63139;52.018;8.552;2023-04-19T10:17:50;101550.06;;;10.78;40.13
74633;BME280;63139;52.018;8.552;2023-04-19T10:20:22;101553.13;;;10.83;39.64
74633;BME280;63139;52.018;8.552;2023-04-19T10:22:53;101542.66;;;10.92;39.96
74633;BME280;63139;52.018;8.552;2023-04-19T10:25:27;101533.44;;;10.96;39.45
74633;BME280;63139;52.018;8.552;2023-04-19T10:27:56;101533.69;;;11.02;39.22
74633;BME280;63139;52.018;8.552;2023-04-19T10:30:24;101534.53;;;11.03;38.44
74633;BME280;63139;52.018;8.552;2023-04-19T10:32:54;101521.41;;;11.11;39.59
74633;BME280;63139;52.018;8.552;2023-04-19T10:35:24;101512.72;;;11.18;38.13
74633;BME280;63139;52.018;8.552;2023-04-19T10:38:04;101518.78;;;11.28;38.01
74633;BME280;63139;52.018;8.552;2023-04-19T10:40:55;101528.81;;;11.35;36.99
74633;BME280;63139;52.018;8.552;2023-04-19T10:43:23;101513.13;;;11.41;36.36
74633;BME280;63139;52.018;8.552;2023-04-19T10:45:51;101514.91;;;11.50;38.14
74633;BME280;63139;52.018;8.552;2023-04-19T10:48:37;101516.44;;;11.53;36.06
74633;BME280;63139;52.018;8.552;2023-04-19T10:51:11;101495.06;;;11.54;35.29
74633;BME280;63139;52.018;8.552;2023-04-19T10:53:53;101491.69;;;11.62;35.67
74633;BME280;63139;52.018;8.552;2023-04-19T10:59:37;101497.34;;;11.67;34.77
74633;BME280;63139;52.018;8.552;2023-04-19T11:02:25;101493.25;;;11.73;32.89
74633;BME280;63139;52.018;8.552;2023-04-19T11:04:59;101502.19;;;11.72;32.45
74633;BME280;63139;52.018;8.552;2023-04-19T11:07:27;101472.19;;;11.71;32.37
74633;BME280;63139;52.018;8.552;2023-04-19T11:09:57;101475.16;;;11.68;32.48
74633;BME280;63139;52.018;8.552;2023-04-19T11:12:25;101481.81;;;11.72;32.89
74633;BME280;63139;52.018;8.552;2023-04-19T11:14:56;101473.72;;;11.74;33.13
74633;BME280;63139;52.018;8.552;2023-04-19T11:17:28;101467.31;;;11.76;33.50
74633;BME280;63139;52.018;8.552;2023-04-19T11:19:58;101474.13;;;11.79;33.23
74633;BME280;63139;52.018;8.552;2023-04-19T11:22:30;101458.50;;;11.76;33.33
74633;BME280;63139;52.018;8.552;2023-04-19T11:25:08;101457.22;;;11.80;33.61
74633;BME280;63139;52.018;8.552;2023-04-19T11:27:36;101445.47;;;11.82;33.42
74633;BME280;63139;52.018;8.552;2023-04-19T11:30:06;101452.13;;;11.86;34.03
74633;BME280;63139;52.018;8.552;2023-04-19T11:32:35;101453.13;;;11.85;34.61
74633;BME280;63139;52.018;8.552;2023-04-19T11:35:04;101440.25;;;11.90;35.03
74633;BME280;63139;52.018;8.552;2023-04-19T11:37:33;101445.22;;;11.93;34.98
74633;BME280;63139;52.018;8.552;2023-04-19T11:40:03;101438.16;;;12.02;35.13
74633;BME280;63139;52.018;8.552;2023-04-19T11:42:33;101439.53;;;12.06;33.19
74633;BME280;63139;52.018;8.552;2023-04-19T11:45:01;101445.16;;;12.03;32.97
74633;BME280;63139;52.018;8.552;2023-04-19T11:47:31;101428.31;;;12.12;34.00
74633;BME280;63139;52.018;8.552;2023-04-19T11:50:30;101420.34;;;12.12;32.51
74633;BME280;63139;52.018;8.552;2023-04-19T11:52:58;101438.56;;;12.07;32.08
74633;BME280;63139;52.018;8.552;2023-04-19T11:55:32;101420.03;;;12.15;32.79
74633;BME280;63139;52.018;8.552;2023-04-19T11:58:01;101398.69;;;12.25;33.76
74633;BME280;63139;52.018;8.552;2023-04-19T12:00:29;101412.84;;;12.33;33.27
74633;BME280;63139;52.018;8.552;2023-04-19T12:02:58;101405.09;;;12.40;34.33
74633;BME280;63139;52.018;8.552;2023-04-19T12:05:27;101399.78;;;12.40;33.92
74633;BME280;63139;52.018;8.552;2023-04-19T12:08:02;101385.25;;;12.60;33.76
74633;BME280;63139;52.018;8.552;2023-04-19T12:10:30;101399.28;;;12.70;34.23
74633;BME280;63139;52.018;8.552;2023-04-19T12:12:58;101405.41;;;12.71;32.11
74633;BME280;63139;52.018;8.552;2023-04-19T12:15:41;101380.75;;;12.87;31.49
74633;BME280;63139;52.018;8.552;2023-04-19T12:18:09;101381.91;;;12.92;32.80
74633;BME280;63139;52.018;8.552;2023-04-19T12:20:38;101365.81;;;12.94;31.74
74633;BME280;63139;52.018;8.552;2023-04-19T12:23:10;101374.66;;;13.02;32.42
74633;BME280;63139;52.018;8.552;2023-04-19T12:25:39;101368.69;;;13.08;32.91
74633;BME280;63139;52.018;8.552;2023-04-19T12:28:08;101363.59;;;13.23;33.45
74633;BME280;63139;52.018;8.552;2023-04-19T12:30:36;101348.31;;;13.33;32.24
74633;BME280;63139;52.018;8.552;2023-04-19T12:33:05;101354.13;;;13.37;31.64
74633;BME280;63139;52.018;8.552;2023-04-19T12:35:34;101344.31;;;13.37;30.65
74633;BME280;63139;52.018;8.552;2023-04-19T12:38:02;101346.50;;;13.50;31.68
74633;BME280;63139;52.018;8.552;2023-04-19T12:40:30;101345.00;;;13.64;31.53
74633;BME280;63139;52.018;8.552;2023-04-19T12:42:58;101341.53;;;13.63;30.29
74633;BME280;63139;52.018;8.552;2023-04-19T12:45:26;101332.88;;;13.53;30.39
74633;BME280;63139;52.018;8.552;2023-04-19T12:47:54;101331.34;;;13.50;29.48
74633;BME280;63139;52.018;8.552;2023-04-19T12:50:24;101320.69;;;13.34;29.74
74633;BME280;63139;52.018;8.552;2023-04-19T12:52:51;101327.03;;;13.33;28.82
74633;BME280;63139;52.018;8.552;2023-04-19T12:55:19;101333.00;;;13.27;30.00
74633;BME280;63139;52.018;8.552;2023-04-19T12:57:47;101337.16;;;13.21;29.52
74633;BME280;63139;52.018;8.552;2023-04-19T13:00:15;101313.84;;;13.07;28.80
74633;BME280;63139;52.018;8.552;2023-04-19T13:02:43;101327.19;;;13.15;30.08
74633;BME280;63139;52.018;8.552;2023-04-19T13:05:13;101308.06;;;13.20;30.34
74633;BME280;63139;52.018;8.552;2023-04-19T13:07:43;101313.91;;;13.24;28.85
74633;BME280;63139;52.018;8.552;2023-04-19T13:10:10;101300.59;;;13.32;30.38
74633;BME280;63139;52.018;8.552;2023-04-19T13:12:39;101308.41;;;13.25;28.73
74633;BME280;63139;52.018;8.552;2023-04-19T13:15:08;101303.59;;;13.37;29.01
74633;BME280;63139;52.018;8.552;2023-04-19T13:17:36;101292.63;;;13.40;28.30